sensor_id;sensor_type;location;lat;lon;timestamp;pressure;altitude;pressure_sealevel;temperature;humidity
3150;BME280;32503;47.748;8.960;2023-03-14T00:00:52;95637.22;;;12.71;69.97
3150;BME280;32503;47.748;8.960;2023-03-14T00:03:19;95626.44;;;12.61;69.98
3150;BME280;32503;47.748;8.960;2023-03-14T00:05:48;95621.78;;;12.61;69.85
3150;BME280;32503;47.748;8.960;2023-03-14T00:08:15;95617.91;;;12.62;69.67
3150;BME280;32503;47.748;8.960;2023-03-14T00:10:42;95611.34;;;12.60;69.40
3150;BME280;32503;47.748;8.960;2023-03-14T00:13:09;95610.97;;;12.58;69.36
3150;BME280;32503;47.748;8.960;2023-03-14T00:15:36;95610.97;;;12.58;69.33
3150;BME280;32503;47.748;8.960;2023-03-14T00:18:03;95618.72;;;12.56;69.01
3150;BME280;32503;47.748;8.960;2023-03-14T00:20:30;95618.75;;;12.52;68.96
3150;BME280;32503;47.748;8.960;2023-03-14T00:22:58;95615.69;;;12.46;69.23
3150;BME280;32503;47.748;8.960;2023-03-14T00:25:25;95616.13;;;12.38;69.07
3150;BME280;32503;47.748;8.960;2023-03-14T00:27:52;95594.16;;;12.21;68.79
3150;BME280;32503;47.748;8.960;2023-03-14T00:30:20;95573.38;;;11.89;70.08
3150;BME280;32503;47.748;8.960;2023-03-14T00:32:47;95555.81;;;11.20;70.38
3150;BME280;32503;47.748;8.960;2023-03-14T00:35:15;95548.47;;;11.24;71.45
3150;BME280;32503;47.748;8.960;2023-03-14T00:37:42;95545.84;;;10.81;73.24
3150;BME280;32503;47.748;8.960;2023-03-14T00:40:11;95530.38;;;10.74;74.26
3150;BME280;32503;47.748;8.960;2023-03-14T00:42:38;95527.31;;;10.65;74.25
3150;BME280;32503;47.748;8.960;2023-03-14T00:45:06;95538.50;;;10.38;74.48
3150;BME280;32503;47.748;8.960;2023-03-14T00:47:34;95510.34;;;10.39;75.32
3150;BME280;32503;47.748;8.960;2023-03-14T00:50:01;95506.81;;;10.24;75.68
3150;BME280;32503;47.748;8.960;2023-03-14T00:52:28;95480.97;;;10.31;75.49
3150;BME280;32503;47.748;8.960;2023-03-14T00:54:55;95465.91;;;10.19;75.22
3150;BME280;32503;47.748;8.960;2023-03-14T00:57:24;95462.09;;;10.52;74.96
3150;BME280;32503;47.748;8.960;2023-03-14T00:59:51;95455.50;;;10.50;74.25
3150;BME280;32503;47.748;8.960;2023-03-14T01:02:18;95473.59;;;10.85;72.72
3150;BME280;32503;47.748;8.960;2023-03-14T01:04:47;95475.88;;;11.05;72.40
3150;BME280;32503;47.748;8.960;2023-03-14T01:07:15;95483.97;;;11.23;71.11
3150;BME280;32503;47.748;8.960;2023-03-14T01:09:42;95501.28;;;11.32;71.68
3150;BME280;32503;47.748;8.960;2023-03-14T01:12:09;95519.06;;;11.41;72.32
3150;BME280;32503;47.748;8.960;2023-03-14T01:14:37;95530.25;;;11.46;72.18
3150;BME280;32503;47.748;8.960;2023-03-14T01:17:04;95537.97;;;11.48;71.87
3150;BME280;32503;47.748;8.960;2023-03-14T01:19:32;95533.38;;;11.37;71.18
3150;BME280;32503;47.748;8.960;2023-03-14T01:22:02;95523.28;;;11.49;70.27
3150;BME280;32503;47.748;8.960;2023-03-14T01:24:29;95513.97;;;11.57;69.44
3150;BME280;32503;47.748;8.960;2023-03-14T01:26:56;95528.25;;;11.68;69.23
3150;BME280;32503;47.748;8.960;2023-03-14T01:29:23;95528.19;;;11.75;69.14
3150;BME280;32503;47.748;8.960;2023-03-14T01:31:51;95530.94;;;11.68;68.69
3150;BME280;32503;47.748;8.960;2023-03-14T01:34:18;95523.28;;;11.49;68.42
3150;BME280;32503;47.748;8.960;2023-03-14T01:36:45;95519.38;;;11.57;69.06
3150;BME280;32503;47.748;8.960;2023-03-14T01:39:12;95524.00;;;11.64;68.09
3150;BME280;32503;47.748;8.960;2023-03-14T01:41:40;95513.22;;;11.53;69.37
3150;BME280;32503;47.748;8.960;2023-03-14T01:44:10;95503.50;;;11.59;68.67
3150;BME280;32503;47.748;8.960;2023-03-14T01:46:39;95502.00;;;11.54;68.36
3150;BME280;32503;47.748;8.960;2023-03-14T01:49:20;95489.97;;;11.59;68.17
3150;BME280;32503;47.748;8.960;2023-03-14T01:51:53;95489.19;;;11.66;68.00
3150;BME280;32503;47.748;8.960;2023-03-14T01:54:27;95482.59;;;11.70;67.31
3150;BME280;32503;47.748;8.960;2023-03-14T01:57:03;95472.91;;;11.73;67.11
3150;BME280;32503;47.748;8.960;2023-03-14T01:59:33;95451.22;;;11.76;67.14
3150;BME280;32503;47.748;8.960;2023-03-14T02:02:01;95433.53;;;11.65;66.75
3150;BME280;32503;47.748;8.960;2023-03-14T02:04:33;95447.41;;;11.70;66.65
3150;BME280;32503;47.748;8.960;2023-03-14T02:07:09;95451.31;;;11.62;65.97
3150;BME280;32503;47.748;8.960;2023-03-14T02:09:39;95451.31;;;11.62;65.11
3150;BME280;32503;47.748;8.960;2023-03-14T02:12:08;95448.25;;;11.56;66.04
3150;BME280;32503;47.748;8.960;2023-03-14T02:14:36;95445.16;;;11.54;66.06
3150;BME280;32503;47.748;8.960;2023-03-14T02:17:05;95421.97;;;11.50;65.53
3150;BME280;32503;47.748;8.960;2023-03-14T02:20:10;95432.00;;;11.56;65.64
3150;BME280;32503;47.748;8.960;2023-03-14T02:22:42;95411.97;;;11.43;65.61
3150;BME280;32503;47.748;8.960;2023-03-14T02:25:14;95425.88;;;11.49;65.89
3150;BME280;32503;47.748;8.960;2023-03-14T02:27:45;95434.38;;;11.47;65.35
3150;BME280;32503;47.748;8.960;2023-03-14T02:30:17;95434.78;;;11.46;64.83
3150;BME280;32503;47.748;8.960;2023-03-14T02:32:47;95451.38;;;11.48;64.99
3150;BME280;32503;47.748;8.960;2023-03-14T02:35:18;95432.81;;;11.50;64.60
3150;BME280;32503;47.748;8.960;2023-03-14T02:37:52;95441.28;;;11.52;64.00
3150;BME280;32503;47.748;8.960;2023-03-14T02:40:20;95430.50;;;11.45;63.91
3150;BME280;32503;47.748;8.960;2023-03-14T02:42:48;95439.41;;;11.49;63.79
3150;BME280;32503;47.748;8.960;2023-03-14T02:45:41;95432.03;;;11.49;63.67
3150;BME280;32503;47.748;8.960;2023-03-14T02:48:15;95427.41;;;11.50;63.20
3150;BME280;32503;47.748;8.960;2023-03-14T02:50:44;95420.44;;;11.45;62.87
3150;BME280;32503;47.748;8.960;2023-03-14T02:53:16;95420.44;;;11.52;63.26
3150;BME280;32503;47.748;8.960;2023-03-14T02:55:46;95418.88;;;11.51;62.71
3150;BME280;32503;47.748;8.960;2023-03-14T02:58:16;95424.22;;;11.62;63.08
3150;BME280;32503;47.748;8.960;2023-03-14T03:00:43;95416.53;;;11.57;62.58
3150;BME280;32503;47.748;8.960;2023-03-14T03:03:11;95411.91;;;11.54;62.44
3150;BME280;32503;47.748;8.960;2023-03-14T03:05:38;95402.66;;;11.48;62.83
3150;BME280;32503;47.748;8.960;2023-03-14T03:08:05;95396.47;;;11.51;62.98
3150;BME280;32503;47.748;8.960;2023-03-14T03:10:33;95391.06;;;11.51;62.71
3150;BME280;32503;47.748;8.960;2023-03-14T03:13:00;95393.00;;;11.47;62.03
3150;BME280;32503;47.748;8.960;2023-03-14T03:15:28;95398.00;;;11.52;61.60
3150;BME280;32503;47.748;8.960;2023-03-14T03:17:55;95384.94;;;11.39;61.76
3150;BME280;32503;47.748;8.960;2023-03-14T03:20:22;95386.47;;;11.44;62.38
3150;BME280;32503;47.748;8.960;2023-03-14T03:22:49;95395.72;;;11.43;62.07
3150;BME280;32503;47.748;8.960;2023-03-14T03:25:17;95398.81;;;11.42;62.53
3150;BME280;32503;47.748;8.960;2023-03-14T03:27:44;95391.94;;;11.33;61.81
3150;BME280;32503;47.748;8.960;2023-03-14T03:30:12;95397.66;;;11.46;61.86
3150;BME280;32503;47.748;8.960;2023-03-14T03:32:40;95393.84;;;11.36;62.32
3150;BME280;32503;47.748;8.960;2023-03-14T03:35:08;95397.34;;;11.33;62.67
3150;BME280;32503;47.748;8.960;2023-03-14T03:37:36;95390.38;;;11.32;62.23
3150;BME280;32503;47.748;8.960;2023-03-14T03:40:04;95386.16;;;11.31;62.77
3150;BME280;32503;47.748;8.960;2023-03-14T03:42:32;95386.91;;;11.32;63.23
3150;BME280;32503;47.748;8.960;2023-03-14T03:44:59;95383.81;;;11.33;62.10
3150;BME280;32503;47.748;8.960;2023-03-14T03:47:27;95367.97;;;11.32;62.43
3150;BME280;32503;47.748;8.960;2023-03-14T03:49:55;95379.19;;;11.30;63.07
3150;BME280;32503;47.748;8.960;2023-03-14T03:52:22;95377.25;;;11.27;62.87
3150;BME280;32503;47.748;8.960;2023-03-14T03:54:49;95381.53;;;11.28;62.45
3150;BME280;32503;47.748;8.960;2023-03-14T03:57:16;95376.50;;;11.27;62.98
3150;BME280;32503;47.748;8.960;2023-03-14T03:59:43;95371.84;;;11.27;62.28
3150;BME280;32503;47.748;8.960;2023-03-14T04:02:10;95369.53;;;11.29;62.55
3150;BME280;32503;47.748;8.960;2023-03-14T04:04:38;95370.31;;;11.30;62.69
3150;BME280;32503;47.748;8.960;2023-03-14T04:07:06;95369.91;;;11.31;62.98
3150;BME280;32503;47.748;8.960;2023-03-14T04:09:33;95360.63;;;11.29;63.08
3150;BME280;32503;47.748;8.960;2023-03-14T04:12:00;95368.72;;;11.32;62.28
3150;BME280;32503;47.748;8.960;2023-03-14T04:14:27;95364.09;;;11.33;62.75
3150;BME280;32503;47.748;8.960;2023-03-14T04:16:54;95355.59;;;11.31;62.07
3150;BME280;32503;47.748;8.960;2023-03-14T04:19:21;95345.94;;;11.33;62.37
3150;BME280;32503;47.748;8.960;2023-03-14T04:21:48;95344.72;;;11.38;62.73
3150;BME280;32503;47.748;8.960;2023-03-14T04:24:17;95345.50;;;11.42;62.35
3150;BME280;32503;47.748;8.960;2023-03-14T04:26:44;95350.16;;;11.34;61.96
3150;BME280;32503;47.748;8.960;2023-03-14T04:29:11;95322.34;;;11.37;62.58
3150;BME280;32503;47.748;8.960;2023-03-14T04:31:38;95340.91;;;11.35;62.93
3150;BME280;32503;47.748;8.960;2023-03-14T04:34:05;95339.75;;;11.33;62.33
3150;BME280;32503;47.748;8.960;2023-03-14T04:36:32;95347.88;;;11.36;63.01
3150;BME280;32503;47.748;8.960;2023-03-14T04:38:59;95330.91;;;11.25;61.87
3150;BME280;32503;47.748;8.960;2023-03-14T04:41:27;95342.44;;;11.36;62.14
3150;BME280;32503;47.748;8.960;2023-03-14T04:43:54;95341.25;;;11.41;62.13
3150;BME280;32503;47.748;8.960;2023-03-14T04:46:21;95338.50;;;11.45;61.92
3150;BME280;32503;47.748;8.960;2023-03-14T04:48:48;95333.50;;;11.43;62.78
3150;BME280;32503;47.748;8.960;2023-03-14T04:51:15;95325.75;;;11.45;61.86
3150;BME280;32503;47.748;8.960;2023-03-14T04:53:42;95329.63;;;11.48;62.30
3150;BME280;32503;47.748;8.960;2023-03-14T04:56:10;95329.25;;;11.46;62.15
3150;BME280;32503;47.748;8.960;2023-03-14T04:58:39;95319.91;;;11.50;61.82
3150;BME280;32503;47.748;8.960;2023-03-14T05:01:07;95313.41;;;11.44;61.70
3150;BME280;32503;47.748;8.960;2023-03-14T05:03:34;95316.09;;;11.48;60.93
3150;BME280;32503;47.748;8.960;2023-03-14T05:06:04;95301.47;;;11.34;61.14
3150;BME280;32503;47.748;8.960;2023-03-14T05:08:31;95294.09;;;11.42;60.98
3150;BME280;32503;47.748;8.960;2023-03-14T05:10:59;95295.63;;;11.39;61.29
3150;BME280;32503;47.748;8.960;2023-03-14T05:13:26;95291.06;;;11.36;61.25
3150;BME280;32503;47.748;8.960;2023-03-14T05:16:04;95274.47;;;11.27;61.07
3150;BME280;32503;47.748;8.960;2023-03-14T05:18:31;95281.75;;;11.37;60.21
3150;BME280;32503;47.748;8.960;2023-03-14T05:20:58;95276.72;;;11.39;60.96
3150;BME280;32503;47.748;8.960;2023-03-14T05:23:25;95272.09;;;11.40;60.83
3150;BME280;32503;47.748;8.960;2023-03-14T05:25:53;95271.31;;;11.36;61.33
3150;BME280;32503;47.748;8.960;2023-03-14T05:28:20;95270.97;;;11.30;61.04
3150;BME280;32503;47.748;8.960;2023-03-14T05:30:47;95266.00;;;11.25;60.54
3150;BME280;32503;47.748;8.960;2023-03-14T05:33:16;95261.28;;;11.36;60.52
3150;BME280;32503;47.748;8.960;2023-03-14T05:35:43;95265.91;;;11.36;60.33
3150;BME280;32503;47.748;8.960;2023-03-14T05:38:09;95260.88;;;11.38;60.84
3150;BME280;32503;47.748;8.960;2023-03-14T05:40:36;95253.59;;;11.31;60.45
3150;BME280;32503;47.748;8.960;2023-03-14T05:43:03;95253.16;;;11.33;60.33
3150;BME280;32503;47.748;8.960;2023-03-14T05:45:34;95242.78;;;11.31;59.91
3150;BME280;32503;47.748;8.960;2023-03-14T05:48:01;95235.84;;;11.27;60.48
3150;BME280;32503;47.748;8.960;2023-03-14T05:50:30;95237.41;;;11.28;61.05
3150;BME280;32503;47.748;8.960;2023-03-14T05:52:57;95224.22;;;11.30;60.78
3150;BME280;32503;47.748;8.960;2023-03-14T05:55:24;95226.59;;;11.24;60.43
3150;BME280;32503;47.748;8.960;2023-03-14T05:57:52;95215.03;;;11.20;61.02
3150;BME280;32503;47.748;8.960;2023-03-14T06:00:21;95208.09;;;11.19;60.51
3150;BME280;32503;47.748;8.960;2023-03-14T06:02:48;95211.59;;;11.16;61.04
3150;BME280;32503;47.748;8.960;2023-03-14T06:05:15;95207.31;;;11.15;60.54
3150;BME280;32503;47.748;8.960;2023-03-14T06:07:43;95213.16;;;11.10;60.73
3150;BME280;32503;47.748;8.960;2023-03-14T06:10:11;95198.91;;;11.06;61.17
3150;BME280;32503;47.748;8.960;2023-03-14T06:12:38;95207.38;;;11.08;60.85
3150;BME280;32503;47.748;8.960;2023-03-14T06:15:07;95202.38;;;11.06;61.25
3150;BME280;32503;47.748;8.960;2023-03-14T06:17:34;95207.00;;;11.06;61.37
3150;BME280;32503;47.748;8.960;2023-03-14T06:20:01;95202.75;;;11.08;60.81
3150;BME280;32503;47.748;8.960;2023-03-14T06:22:28;95197.34;;;11.12;60.13
3150;BME280;32503;47.748;8.960;2023-03-14T06:24:57;95195.81;;;11.07;60.62
3150;BME280;32503;47.748;8.960;2023-03-14T06:27:24;95194.22;;;11.10;60.68
3150;BME280;32503;47.748;8.960;2023-03-14T06:29:51;95189.59;;;11.10;60.32
3150;BME280;32503;47.748;8.960;2023-03-14T06:32:18;95194.19;;;11.13;60.30
3150;BME280;32503;47.748;8.960;2023-03-14T06:34:46;95191.09;;;11.15;60.05
3150;BME280;32503;47.748;8.960;2023-03-14T06:37:13;95192.28;;;11.14;59.70
3150;BME280;32503;47.748;8.960;2023-03-14T06:39:40;95188.03;;;11.13;61.03
3150;BME280;32503;47.748;8.960;2023-03-14T06:42:11;95178.41;;;11.12;60.50
3150;BME280;32503;47.748;8.960;2023-03-14T06:44:38;95186.53;;;11.05;60.95
3150;BME280;32503;47.748;8.960;2023-03-14T06:47:05;95187.22;;;11.19;60.05
3150;BME280;32503;47.748;8.960;2023-03-14T06:49:32;95192.63;;;11.19;60.35
3150;BME280;32503;47.748;8.960;2023-03-14T06:51:59;95181.47;;;11.14;60.15
3150;BME280;32503;47.748;8.960;2023-03-14T06:54:26;95187.16;;;11.27;60.15
3150;BME280;32503;47.748;8.960;2023-03-14T06:56:53;95193.75;;;11.22;60.61
3150;BME280;32503;47.748;8.960;2023-03-14T06:59:21;95194.91;;;11.25;59.42
3150;BME280;32503;47.748;8.960;2023-03-14T07:01:50;95189.09;;;11.26;60.04
3150;BME280;32503;47.748;8.960;2023-03-14T07:04:17;95176.41;;;11.19;60.03
3150;BME280;32503;47.748;8.960;2023-03-14T07:06:45;95186.44;;;11.19;59.64
3150;BME280;32503;47.748;8.960;2023-03-14T07:09:13;95179.50;;;11.18;59.91
3150;BME280;32503;47.748;8.960;2023-03-14T07:11:42;95182.16;;;11.22;59.87
3150;BME280;32503;47.748;8.960;2023-03-14T07:14:09;95179.50;;;11.18;59.15
3150;BME280;32503;47.748;8.960;2023-03-14T07:16:38;95186.78;;;11.25;59.37
3150;BME280;32503;47.748;8.960;2023-03-14T07:19:05;95191.72;;;11.37;59.46
3150;BME280;32503;47.748;8.960;2023-03-14T07:21:32;95192.28;;;11.59;58.31
3150;BME280;32503;47.748;8.960;2023-03-14T07:24:00;95205.75;;;11.66;57.89
3150;BME280;32503;47.748;8.960;2023-03-14T07:26:27;95203.19;;;11.90;57.52
3150;BME280;32503;47.748;8.960;2023-03-14T07:28:54;95199.97;;;12.37;56.22
3150;BME280;32503;47.748;8.960;2023-03-14T07:31:21;95192.81;;;12.54;55.35
3150;BME280;32503;47.748;8.960;2023-03-14T07:33:50;95196.72;;;12.49;55.43
3150;BME280;32503;47.748;8.960;2023-03-14T07:36:17;95199.41;;;12.52;55.07
3150;BME280;32503;47.748;8.960;2023-03-14T07:38:44;95207.28;;;12.70;55.26
3150;BME280;32503;47.748;8.960;2023-03-14T07:41:11;95183.53;;;12.82;54.54
3150;BME280;32503;47.748;8.960;2023-03-14T07:43:38;95211.88;;;13.28;53.60
3150;BME280;32503;47.748;8.960;2023-03-14T07:46:06;95211.03;;;13.35;53.18
3150;BME280;32503;47.748;8.960;2023-03-14T07:48:34;95209.84;;;13.36;53.21
3150;BME280;32503;47.748;8.960;2023-03-14T07:51:03;95209.09;;;13.08;53.23
3150;BME280;32503;47.748;8.960;2023-03-14T07:53:30;95216.31;;;12.91;53.22
3150;BME280;32503;47.748;8.960;2023-03-14T07:55:57;95216.41;;;12.84;53.88
3150;BME280;32503;47.748;8.960;2023-03-14T07:58:24;95213.19;;;12.93;54.00
3150;BME280;32503;47.748;8.960;2023-03-14T08:00:52;95188.09;;;12.58;53.79
3150;BME280;32503;47.748;8.960;2023-03-14T08:03:19;95201.34;;;12.52;54.27
3150;BME280;32503;47.748;8.960;2023-03-14T08:05:48;95192.00;;;12.57;54.07
3150;BME280;32503;47.748;8.960;2023-03-14T08:08:17;95189.78;;;12.48;54.64
3150;BME280;32503;47.748;8.960;2023-03-14T08:10:45;95205.09;;;12.62;53.91
3150;BME280;32503;47.748;8.960;2023-03-14T08:13:12;95202.41;;;12.62;54.59
3150;BME280;32503;47.748;8.960;2023-03-14T08:15:40;95199.19;;;12.67;54.38
3150;BME280;32503;47.748;8.960;2023-03-14T08:18:07;95198.13;;;13.15;53.50
3150;BME280;32503;47.748;8.960;2023-03-14T08:20:36;95191.47;;;13.47;52.40
3150;BME280;32503;47.748;8.960;2023-03-14T08:23:03;95188.25;;;13.96;50.99
3150;BME280;32503;47.748;8.960;2023-03-14T08:25:32;95198.00;;;14.53;49.77
3150;BME280;32503;47.748;8.960;2023-03-14T08:27:59;95205.09;;;14.87;49.33
3150;BME280;32503;47.748;8.960;2023-03-14T08:30:26;95223.84;;;14.65;48.15
3150;BME280;32503;47.748;8.960;2023-03-14T08:32:53;95225.50;;;14.59;48.63
3150;BME280;32503;47.748;8.960;2023-03-14T08:35:22;95227.03;;;14.60;48.92
3150;BME280;32503;47.748;8.960;2023-03-14T08:37:49;95233.22;;;14.40;48.68
3150;BME280;32503;47.748;8.960;2023-03-14T08:40:18;95236.50;;;14.32;49.00
3150;BME280;32503;47.748;8.960;2023-03-14T08:42:47;95225.06;;;14.20;49.40
3150;BME280;32503;47.748;8.960;2023-03-14T08:45:16;95235.84;;;14.24;49.45
3150;BME280;32503;47.748;8.960;2023-03-14T08:47:43;95228.97;;;14.19;49.73
3150;BME280;32503;47.748;8.960;2023-03-14T08:50:12;95233.50;;;14.26;49.89
3150;BME280;32503;47.748;8.960;2023-03-14T08:52:39;95194.97;;;13.91;49.88
3150;BME280;32503;47.748;8.960;2023-03-14T08:55:08;95221.94;;;14.22;50.31
3150;BME280;32503;47.748;8.960;2023-03-14T08:57:35;95229.31;;;14.21;49.97
3150;BME280;32503;47.748;8.960;2023-03-14T09:00:05;95237.53;;;14.18;50.29
3150;BME280;32503;47.748;8.960;2023-03-14T09:02:37;95232.31;;;14.07;50.37
3150;BME280;32503;47.748;8.960;2023-03-14T09:05:05;95231.47;;;14.30;49.91
3150;BME280;32503;47.748;8.960;2023-03-14T09:07:32;95240.09;;;14.85;49.32
3150;BME280;32503;47.748;8.960;2023-03-14T09:09:59;95229.47;;;15.11;47.42
3150;BME280;32503;47.748;8.960;2023-03-14T09:12:27;95235.34;;;15.59;46.44
3150;BME280;32503;47.748;8.960;2023-03-14T09:14:54;95234.06;;;15.63;46.40
3150;BME280;32503;47.748;8.960;2023-03-14T09:17:22;95232.25;;;15.89;45.68
3150;BME280;32503;47.748;8.960;2023-03-14T09:19:49;95235.88;;;16.16;45.70
3150;BME280;32503;47.748;8.960;2023-03-14T09:22:16;95250.53;;;16.22;44.54
3150;BME280;32503;47.748;8.960;2023-03-14T09:24:43;95250.50;;;15.92;44.71
3150;BME280;32503;47.748;8.960;2023-03-14T09:27:10;95258.94;;;15.82;44.89
3150;BME280;32503;47.748;8.960;2023-03-14T09:29:37;95271.44;;;15.96;45.44
3150;BME280;32503;47.748;8.960;2023-03-14T09:32:05;95266.63;;;16.16;44.93
3150;BME280;32503;47.748;8.960;2023-03-14T09:34:33;95268.44;;;16.36;44.78
3150;BME280;32503;47.748;8.960;2023-03-14T09:37:00;95260.03;;;16.30;44.16
3150;BME280;32503;47.748;8.960;2023-03-14T09:39:27;95259.47;;;16.22;44.37
3150;BME280;32503;47.748;8.960;2023-03-14T09:41:57;95283.16;;;16.09;44.70
3150;BME280;32503;47.748;8.960;2023-03-14T09:44:30;95273.47;;;15.91;45.34
3150;BME280;32503;47.748;8.960;2023-03-14T09:47:03;95274.91;;;15.63;45.28
3150;BME280;32503;47.748;8.960;2023-03-14T09:49:36;95264.78;;;15.31;46.04
3150;BME280;32503;47.748;8.960;2023-03-14T09:52:11;95293.47;;;15.35;46.36
3150;BME280;32503;47.748;8.960;2023-03-14T09:54:43;95273.84;;;15.08;46.52
3150;BME280;32503;47.748;8.960;2023-03-14T09:57:14;95277.38;;;14.88;47.66
3150;BME280;32503;47.748;8.960;2023-03-14T09:59:45;95276.13;;;14.73;47.67
3150;BME280;32503;47.748;8.960;2023-03-14T10:02:17;95299.72;;;14.59;47.86
3150;BME280;32503;47.748;8.960;2023-03-14T10:04:48;95278.00;;;14.56;48.27
3150;BME280;32503;47.748;8.960;2023-03-14T10:07:18;95296.59;;;14.57;48.03
3150;BME280;32503;47.748;8.960;2023-03-14T10:09:49;95297.75;;;14.36;48.38
3150;BME280;32503;47.748;8.960;2023-03-14T10:12:17;95308.00;;;14.49;48.29
3150;BME280;32503;47.748;8.960;2023-03-14T10:14:48;95283.88;;;14.11;48.78
3150;BME280;32503;47.748;8.960;2023-03-14T10:17:18;95306.41;;;14.31;48.80
3150;BME280;32503;47.748;8.960;2023-03-14T10:19:55;95303.44;;;14.22;48.63
3150;BME280;32503;47.748;8.960;2023-03-14T10:22:26;95299.88;;;14.05;48.56
3150;BME280;32503;47.748;8.960;2023-03-14T10:24:57;95287.47;;;14.04;48.49
3150;BME280;32503;47.748;8.960;2023-03-14T10:27:31;95295.09;;;14.13;48.95
3150;BME280;32503;47.748;8.960;2023-03-14T10:30:00;95298.22;;;14.11;48.98
3150;BME280;32503;47.748;8.960;2023-03-14T10:32:33;95322.22;;;14.36;49.31
3150;BME280;32503;47.748;8.960;2023-03-14T10:35:19;95300.84;;;13.95;48.78
3150;BME280;32503;47.748;8.960;2023-03-14T10:37:53;95318.78;;;13.89;49.96
3150;BME280;32503;47.748;8.960;2023-03-14T10:40:28;95315.81;;;13.79;50.05
3150;BME280;32503;47.748;8.960;2023-03-14T10:42:58;95326.97;;;13.61;50.71
3150;BME280;32503;47.748;8.960;2023-03-14T10:45:32;95327.84;;;13.55;50.52
3150;BME280;32503;47.748;8.960;2023-03-14T10:48:20;95353.94;;;13.72;50.73
3150;BME280;32503;47.748;8.960;2023-03-14T10:50:57;95308.47;;;13.25;51.13
3150;BME280;32503;47.748;8.960;2023-03-14T10:53:25;95343.00;;;13.21;52.35
3150;BME280;32503;47.748;8.960;2023-03-14T10:55:52;95357.94;;;13.06;53.63
3150;BME280;32503;47.748;8.960;2023-03-14T10:58:23;95365.44;;;13.25;53.21
3150;BME280;32503;47.748;8.960;2023-03-14T11:01:05;95352.53;;;13.06;52.82
3150;BME280;32503;47.748;8.960;2023-03-14T11:03:36;95364.56;;;13.01;52.59
3150;BME280;32503;47.748;8.960;2023-03-14T11:06:12;95363.03;;;13.00;52.91
3150;BME280;32503;47.748;8.960;2023-03-14T11:08:46;95375.03;;;13.03;53.38
3150;BME280;32503;47.748;8.960;2023-03-14T11:11:19;95371.25;;;12.93;53.98
3150;BME280;32503;47.748;8.960;2023-03-14T11:14:02;95370.97;;;12.84;53.91
3150;BME280;32503;47.748;8.960;2023-03-14T11:16:44;95379.44;;;12.89;54.53
3150;BME280;32503;47.748;8.960;2023-03-14T11:19:42;95373.38;;;12.78;54.71
3150;BME280;32503;47.748;8.960;2023-03-14T11:22:25;95393.91;;;12.76;55.61
3150;BME280;32503;47.748;8.960;2023-03-14T11:25:14;95382.38;;;12.68;55.52
3150;BME280;32503;47.748;8.960;2023-03-14T11:27:51;95387.22;;;12.49;56.42
3150;BME280;32503;47.748;8.960;2023-03-14T11:30:29;95398.81;;;12.54;57.75
3150;BME280;32503;47.748;8.960;2023-03-14T11:33:03;95408.16;;;12.45;59.32
3150;BME280;32503;47.748;8.960;2023-03-14T11:35:38;95399.66;;;12.43;59.13
3150;BME280;32503;47.748;8.960;2023-03-14T11:38:24;95419.94;;;12.28;59.33
3150;BME280;32503;47.748;8.960;2023-03-14T11:40:58;95424.22;;;12.25;60.41
3150;BME280;32503;47.748;8.960;2023-03-14T11:43:29;95430.94;;;12.06;60.29
3150;BME280;32503;47.748;8.960;2023-03-14T11:46:05;95390.81;;;11.90;60.23
3150;BME280;32503;47.748;8.960;2023-03-14T11:48:40;95437.16;;;12.00;60.41
3150;BME280;32503;47.748;8.960;2023-03-14T11:51:17;95429.50;;;11.84;60.93
3150;BME280;32503;47.748;8.960;2023-03-14T11:54:02;95436.53;;;11.77;60.58
3150;BME280;32503;47.748;8.960;2023-03-14T11:56:37;95450.56;;;11.58;61.03
3150;BME280;32503;47.748;8.960;2023-03-14T11:59:14;95444.78;;;11.52;61.73
3150;BME280;32503;47.748;8.960;2023-03-14T12:01:52;95434.41;;;11.44;61.72
3150;BME280;32503;47.748;8.960;2023-03-14T12:04:41;95465.41;;;11.21;62.00
3150;BME280;32503;47.748;8.960;2023-03-14T12:07:17;95465.84;;;11.02;62.21
3150;BME280;32503;47.748;8.960;2023-03-14T12:09:48;95463.56;;;10.89;63.00
3150;BME280;32503;47.748;8.960;2023-03-14T12:12:19;95477.88;;;10.82;63.74
3150;BME280;32503;47.748;8.960;2023-03-14T12:14:54;95454.34;;;10.65;63.43
3150;BME280;32503;47.748;8.960;2023-03-14T12:17:24;95475.56;;;10.67;63.86
3150;BME280;32503;47.748;8.960;2023-03-14T12:20:03;95480.22;;;10.73;64.58
3150;BME280;32503;47.748;8.960;2023-03-14T12:22:35;95477.91;;;10.68;64.36
3150;BME280;32503;47.748;8.960;2023-03-14T12:25:16;95475.59;;;10.56;65.21
3150;BME280;32503;47.748;8.960;2023-03-14T12:28:19;95454.00;;;10.34;65.30
3150;BME280;32503;47.748;8.960;2023-03-14T12:30:46;95488.72;;;10.54;65.28
3150;BME280;32503;47.748;8.960;2023-03-14T12:33:28;95488.72;;;10.50;65.59
3150;BME280;32503;47.748;8.960;2023-03-14T12:36:18;95464.00;;;10.37;65.07
3150;BME280;32503;47.748;8.960;2023-03-14T12:39:13;95500.66;;;10.63;65.08
3150;BME280;32503;47.748;8.960;2023-03-14T12:41:51;95498.34;;;10.44;64.50
3150;BME280;32503;47.748;8.960;2023-03-14T12:44:43;95494.88;;;10.61;65.28
3150;BME280;32503;47.748;8.960;2023-03-14T12:47:50;95518.44;;;10.68;64.06
3150;BME280;32503;47.748;8.960;2023-03-14T12:50:27;95536.97;;;10.70;64.08
3150;BME280;32503;47.748;8.960;2023-03-14T12:53:47;95545.47;;;10.65;64.27
3150;BME280;32503;47.748;8.960;2023-03-14T12:56:26;95541.19;;;10.78;64.49
3150;BME280;32503;47.748;8.960;2023-03-14T12:59:17;95547.41;;;10.75;64.69
3150;BME280;32503;47.748;8.960;2023-03-14T13:01:54;95570.53;;;10.90;64.03
3150;BME280;32503;47.748;8.960;2023-03-14T13:04:29;95586.00;;;10.86;64.75
3150;BME280;32503;47.748;8.960;2023-03-14T13:07:00;95619.19;;;10.76;66.32
3150;BME280;32503;47.748;8.960;2023-03-14T13:09:53;95640.69;;;10.18;64.35
3150;BME280;32503;47.748;8.960;2023-03-14T13:12:29;95636.78;;;10.05;64.30
3150;BME280;32503;47.748;8.960;2023-03-14T13:15:13;95659.09;;;9.95;64.47
3150;BME280;32503;47.748;8.960;2023-03-14T13:17:41;95660.47;;;9.60;64.62
3150;BME280;32503;47.748;8.960;2023-03-14T13:20:14;95694.28;;;9.43;65.48
3150;BME280;32503;47.748;8.960;2023-03-14T13:22:48;95649.25;;;8.95;66.60
3150;BME280;32503;47.748;8.960;2023-03-14T13:25:16;95681.06;;;9.27;66.00
3150;BME280;32503;47.748;8.960;2023-03-14T13:27:47;95694.22;;;9.32;66.67